createdAt,value
2018-06-27T02:01:07.784Z,10.9
2018-06-27T02:02:09.434Z,16.7
2018-06-27T02:03:11.079Z,13.5
2018-06-27T02:04:15.243Z,11.7
2018-06-27T02:05:16.694Z,12.9
2018-06-27T02:06:18.359Z,14.2
2018-06-27T02:07:19.993Z,11.4
2018-06-27T02:08:21.648Z,13.2
2018-06-27T02:09:23.290Z,12.9
2018-06-27T02:10:24.934Z,11.5
2018-06-27T02:11:26.583Z,13.7
2018-06-27T02:12:28.235Z,12.9
2018-06-27T02:13:29.893Z,13.0
2018-06-27T02:14:31.534Z,14.4
2018-06-27T02:15:33.179Z,12.4
2018-06-27T02:16:34.824Z,13.0
2018-06-27T02:17:36.468Z,14.3
2018-06-27T02:18:38.120Z,12.3
2018-06-27T02:19:39.769Z,14.0
2018-06-27T02:20:41.425Z,13.9
2018-06-27T02:21:43.074Z,11.4
2018-06-27T02:22:44.722Z,9.9
2018-06-27T02:23:46.366Z,10.4
2018-06-27T02:24:48.019Z,10.3
2018-06-27T02:25:49.667Z,10.8
2018-06-27T02:26:51.305Z,13.3
2018-06-27T02:27:52.950Z,12.0
2018-06-27T02:28:54.591Z,12.9
2018-06-27T02:29:56.245Z,13.0
2018-06-27T02:30:57.902Z,10.1
2018-06-27T02:31:59.571Z,12.6
2018-06-27T02:33:01.219Z,12.8
2018-06-27T02:34:02.890Z,14.9
2018-06-27T02:35:04.553Z,10.7
2018-06-27T02:36:06.190Z,12.2
2018-06-27T02:37:07.844Z,12.1
2018-06-27T02:38:09.490Z,12.0
2018-06-27T02:39:11.149Z,12.0
2018-06-27T02:40:12.804Z,12.9
2018-06-27T02:41:14.450Z,10.2
2018-06-27T02:42:16.103Z,11.0
2018-06-27T02:43:17.757Z,13.4
2018-06-27T02:44:19.419Z,11.3
2018-06-27T02:45:21.059Z,11.5
2018-06-27T02:46:22.705Z,9.9
2018-06-27T02:47:24.372Z,12.5
2018-06-27T02:48:26.028Z,12.4
2018-06-27T02:49:27.671Z,12.3
2018-06-27T02:50:29.318Z,11.7
2018-06-27T02:51:30.974Z,13.6
2018-06-27T02:52:32.615Z,11.4
2018-06-27T02:53:34.267Z,12.0
2018-06-27T02:54:35.908Z,13.7
2018-06-27T02:55:37.553Z,14.1
2018-06-27T02:56:39.209Z,11.2
2018-06-27T02:57:40.854Z,14.3
2018-06-27T02:58:42.556Z,14.0
2018-06-27T02:59:44.219Z,14.3
2018-06-27T03:00:45.855Z,11.2
2018-06-27T03:01:47.511Z,10.7
2018-06-27T03:02:49.157Z,12.2
2018-06-27T03:03:50.815Z,13.1
2018-06-27T03:04:52.470Z,14.9
2018-06-27T03:05:54.114Z,11.1
2018-06-27T03:06:55.770Z,12.1
2018-06-27T03:07:57.419Z,11.5
2018-06-27T03:08:59.068Z,11.3
2018-06-27T03:10:00.713Z,13.0
2018-06-27T03:11:02.395Z,13.0
2018-06-27T03:12:04.051Z,14.8
2018-06-27T03:13:05.724Z,11.7
2018-06-27T03:14:07.369Z,15.7
2018-06-27T03:15:09.018Z,11.2
2018-06-27T03:16:10.677Z,12.7
2018-06-27T03:17:12.335Z,11.9
2018-06-27T03:18:13.979Z,13.0
2018-06-27T03:19:15.632Z,14.4
2018-06-27T03:20:17.333Z,17.8
2018-06-27T03:21:18.941Z,15.7
2018-06-27T03:22:20.600Z,13.4
2018-06-27T03:23:22.250Z,12.1
2018-06-27T03:24:23.899Z,13.0
2018-06-27T03:25:25.544Z,12.6
2018-06-27T03:26:27.198Z,12.7
2018-06-27T03:27:28.858Z,13.6
2018-06-27T03:28:30.511Z,13.0
2018-06-27T03:29:32.157Z,11.8
2018-06-27T03:30:33.814Z,12.6
2018-06-27T03:31:35.463Z,13.2
2018-06-27T03:32:37.120Z,14.1
2018-06-27T03:33:38.789Z,14.1
2018-06-27T03:34:40.421Z,12.2
2018-06-27T03:35:42.067Z,13.7
2018-06-27T03:36:43.722Z,11.8
2018-06-27T03:37:45.378Z,12.7
2018-06-27T03:38:47.032Z,12.2
2018-06-27T03:39:48.680Z,12.7
2018-06-27T03:40:50.337Z,12.6
2018-06-27T03:41:51.990Z,12.4
2018-06-27T03:42:53.646Z,14.2
2018-06-27T03:43:55.298Z,11.9
2018-06-27T03:44:56.959Z,13.7
2018-06-27T03:45:58.609Z,14.5
2018-06-27T03:47:00.260Z,14.1
2018-06-27T03:48:01.937Z,12.6
2018-06-27T03:49:03.577Z,15.1
2018-06-27T03:50:05.234Z,10.8
2018-06-27T03:51:06.879Z,12.6
2018-06-27T03:52:08.526Z,13.9
2018-06-27T03:53:10.185Z,11.7
2018-06-27T03:54:11.847Z,15.5
2018-06-27T03:55:13.512Z,15.4
2018-06-27T03:56:15.162Z,14.7
2018-06-27T03:57:16.814Z,19.6
2018-06-27T03:58:18.465Z,14.7
2018-06-27T03:59:20.124Z,13.8
2018-06-27T04:00:21.782Z,14.7
2018-06-27T04:01:23.441Z,15.7
2018-06-27T04:02:25.103Z,16.5
2018-06-27T04:03:26.777Z,15.6
2018-06-27T04:04:28.413Z,18.4
2018-06-27T04:05:30.076Z,14.6
2018-06-27T04:06:31.732Z,14.4
2018-06-27T04:07:33.384Z,14.2
2018-06-27T04:08:35.053Z,14.0
2018-06-27T04:09:36.704Z,19.0
2018-06-27T04:10:38.371Z,13.9
2018-06-27T04:11:40.026Z,16.5
2018-06-27T04:12:41.738Z,14.0
2018-06-27T04:13:43.322Z,12.5
2018-06-27T04:14:44.975Z,12.4
2018-06-27T04:15:46.626Z,11.8
2018-06-27T04:16:48.282Z,13.7
2018-06-27T04:17:49.940Z,13.1
2018-06-27T04:18:51.599Z,15.9
2018-06-27T04:19:53.249Z,11.3
2018-06-27T04:20:54.901Z,13.1
2018-06-27T04:21:56.568Z,11.3
2018-06-27T04:22:58.210Z,15.2
2018-06-27T04:23:59.870Z,15.2
2018-06-27T04:25:01.546Z,13.6
2018-06-27T04:26:03.227Z,11.4
2018-06-27T04:27:04.873Z,11.4
2018-06-27T04:28:06.534Z,13.2
2018-06-27T04:29:08.179Z,12.1
2018-06-27T04:30:09.835Z,10.5
2018-06-27T04:31:11.491Z,13.4
2018-06-27T04:32:13.153Z,9.7
2018-06-27T04:33:14.801Z,10.6
2018-06-27T04:34:16.462Z,11.3
2018-06-27T04:35:18.115Z,13.1
2018-06-27T04:36:19.770Z,9.5
2018-06-27T04:37:21.423Z,11.3
2018-06-27T04:38:23.083Z,11.4
2018-06-27T04:39:24.745Z,11.7
2018-06-27T04:40:26.392Z,10.2
2018-06-27T04:41:28.055Z,9.6
2018-06-27T04:42:29.714Z,8.4
2018-06-27T04:43:31.376Z,8.7
2018-06-27T04:44:33.040Z,12.0
2018-06-27T04:45:34.695Z,10.7
2018-06-27T04:46:36.352Z,11.3
2018-06-27T04:47:38.009Z,10.8
2018-06-27T04:48:39.700Z,11.0
2018-06-27T04:49:41.359Z,9.6
2018-06-27T04:50:43.012Z,8.5
2018-06-27T04:51:44.724Z,12.1
2018-06-27T04:52:46.383Z,11.6
2018-06-27T04:53:48.042Z,9.4
2018-06-27T04:54:49.761Z,9.5
2018-06-27T04:55:51.404Z,8.1
2018-06-27T04:56:53.067Z,8.7
2018-06-27T04:57:54.738Z,8.4
2018-06-27T04:58:56.393Z,8.7
2018-06-27T04:59:58.064Z,9.9
2018-06-27T05:00:59.722Z,7.7
2018-06-27T05:02:01.394Z,9.5
2018-06-27T05:03:03.098Z,8.0
2018-06-27T05:04:04.743Z,9.9
2018-06-27T05:05:06.402Z,8.4
2018-06-27T05:06:08.062Z,10.0
2018-06-27T05:07:09.737Z,8.5
2018-06-27T05:08:11.399Z,9.7
2018-06-27T05:09:13.058Z,8.7
2018-06-27T05:10:14.724Z,7.2
2018-06-27T05:11:16.384Z,7.4
2018-06-27T05:12:18.066Z,8.3
2018-06-27T05:13:19.710Z,8.4
2018-06-27T05:14:21.381Z,7.0
2018-06-27T05:15:23.044Z,6.1
2018-06-27T05:16:24.701Z,7.0
2018-06-27T05:17:26.359Z,7.7
2018-06-27T05:18:28.010Z,6.4
2018-06-27T05:19:29.674Z,6.8
2018-06-27T05:20:31.351Z,7.9
2018-06-27T05:21:33.022Z,9.9
2018-06-27T05:22:34.689Z,9.1
2018-06-27T05:23:36.351Z,9.7
2018-06-27T05:24:38.011Z,7.8
2018-06-27T05:25:39.680Z,7.4
2018-06-27T05:26:41.336Z,8.8
2018-06-27T05:27:43.021Z,10.1
2018-06-27T05:28:44.625Z,7.9
2018-06-27T05:29:46.287Z,7.9
2018-06-27T05:30:47.951Z,8.5
2018-06-27T05:31:49.614Z,12.6
2018-06-27T05:32:51.282Z,9.5
2018-06-27T05:33:52.986Z,8.4
2018-06-27T05:34:54.628Z,11.0
2018-06-27T05:35:56.293Z,8.9
2018-06-27T05:36:57.956Z,14.8
2018-06-27T05:37:59.613Z,9.4
2018-06-27T05:39:01.280Z,7.9
2018-06-27T05:40:02.965Z,7.8
2018-06-27T05:41:04.649Z,7.4
2018-06-27T05:42:06.315Z,9.0
2018-06-27T05:43:07.979Z,9.0
2018-06-27T05:44:09.673Z,8.3
2018-06-27T05:45:11.316Z,13.0
2018-06-27T05:46:12.967Z,7.9
2018-06-27T05:47:14.628Z,7.7
2018-06-27T05:48:16.303Z,10.6
2018-06-27T05:49:17.970Z,16.0
2018-06-27T05:50:19.634Z,8.8
2018-06-27T05:51:21.297Z,11.0
2018-06-27T05:52:22.969Z,7.3
2018-06-27T05:53:24.642Z,10.4
2018-06-27T05:54:26.309Z,11.1
2018-06-27T05:55:27.972Z,10.1
2018-06-27T06:01:56.669Z,9.1
2018-06-27T06:02:58.326Z,11.3
2018-06-27T06:04:50.232Z,9.7
2018-06-27T06:05:51.912Z,8.8
2018-06-27T06:06:53.570Z,10.3
2018-06-27T06:07:55.240Z,9.7
2018-06-27T06:08:56.907Z,8.3
2018-06-27T06:09:58.578Z,11.8
2018-06-27T06:11:00.245Z,9.8
2018-06-27T06:12:01.912Z,8.7
2018-06-27T06:13:03.579Z,19.9
2018-06-27T06:14:05.253Z,17.0
2018-06-27T06:15:06.912Z,12.0
2018-06-27T06:16:08.574Z,9.7
2018-06-27T06:17:10.254Z,10.5
2018-06-27T06:18:11.912Z,10.7
2018-06-27T06:19:13.573Z,8.4
2018-06-27T06:20:15.236Z,14.3
2018-06-27T06:21:16.902Z,8.5
2018-06-27T06:22:19.485Z,11.5
2018-06-27T06:23:21.147Z,14.2
2018-06-27T06:24:22.812Z,12.6
2018-06-27T06:25:24.500Z,9.5
2018-06-27T06:26:26.148Z,10.0
2018-06-27T06:27:27.812Z,7.7
2018-06-27T06:28:29.467Z,8.6
2018-06-27T06:29:31.153Z,10.1
2018-06-27T06:30:32.821Z,10.5
2018-06-27T06:31:34.487Z,8.8
2018-06-27T06:32:36.166Z,9.0
2018-06-27T06:33:37.831Z,12.0
2018-06-27T06:34:39.519Z,10.8
2018-06-27T06:35:41.202Z,8.0
2018-06-27T06:36:42.875Z,10.7
2018-06-27T06:37:44.537Z,10.7
2018-06-27T06:38:46.213Z,9.5
2018-06-27T06:39:47.891Z,10.6
2018-06-27T06:40:49.660Z,10.9
2018-06-27T06:41:51.235Z,11.2
2018-06-27T06:42:52.907Z,10.7
2018-06-27T06:43:54.577Z,9.9
2018-06-27T06:44:56.257Z,10.1
2018-06-27T06:45:57.947Z,10.8
2018-06-27T06:46:59.597Z,9.5
2018-06-27T06:48:01.292Z,9.2
2018-06-27T06:49:02.976Z,9.9
2018-06-27T06:50:04.642Z,11.5
2018-06-27T06:51:06.345Z,10.3
2018-06-27T06:52:08.041Z,10.0
2018-06-27T06:53:09.696Z,11.8
2018-06-27T06:54:11.430Z,12.2
2018-06-27T06:55:13.051Z,10.3
2018-06-27T06:56:14.711Z,9.8
2018-06-27T06:57:16.391Z,10.8
2018-06-27T06:58:18.048Z,9.5
2018-06-27T06:59:19.726Z,10.4
2018-06-27T07:00:21.384Z,12.0
2018-06-27T07:01:23.058Z,11.4
2018-06-27T07:02:24.762Z,12.4
2018-06-27T07:03:26.436Z,12.7
2018-06-27T07:04:28.101Z,10.7
2018-06-27T07:05:29.771Z,26.3
2018-06-27T07:06:31.455Z,14.0
2018-06-27T07:07:33.123Z,14.5
2018-06-27T07:08:34.805Z,12.8
2018-06-27T07:09:36.480Z,13.5
2018-06-27T07:10:38.154Z,9.8
2018-06-27T07:11:39.830Z,9.8
2018-06-27T07:12:41.578Z,11.9
2018-06-27T07:13:43.245Z,9.6
2018-06-27T07:14:44.936Z,16.4
2018-06-27T07:15:46.608Z,12.0
2018-06-27T07:16:48.284Z,12.8
2018-06-27T07:17:50.003Z,11.8
2018-06-27T07:18:51.610Z,11.0
2018-06-27T07:19:53.281Z,14.1
2018-06-27T07:20:54.953Z,13.2
2018-06-27T07:21:56.637Z,11.3
2018-06-27T07:22:58.318Z,9.8
2018-06-27T07:23:59.995Z,10.6
2018-06-27T07:25:01.671Z,11.8
2018-06-27T07:26:03.389Z,9.0
2018-06-27T07:27:05.079Z,8.7
2018-06-27T07:28:06.765Z,10.6
2018-06-27T07:29:08.441Z,9.8
2018-06-27T07:30:10.128Z,13.8
2018-06-27T07:31:11.814Z,8.7
2018-06-27T07:32:13.507Z,10.2
2018-06-27T07:33:15.185Z,10.2
2018-06-27T07:34:16.867Z,8.4
2018-06-27T07:35:18.546Z,8.7
2018-06-27T07:36:20.227Z,12.0
2018-06-27T07:37:21.905Z,7.7
2018-06-27T07:38:23.580Z,5.5
2018-06-27T07:39:25.254Z,8.9
2018-06-27T07:40:26.932Z,7.7
2018-06-27T07:41:28.620Z,8.6
2018-06-27T07:42:30.283Z,5.4
2018-06-27T07:43:31.962Z,8.1
2018-06-27T07:44:33.697Z,5.0
2018-06-27T07:45:35.312Z,5.1
2018-06-27T07:46:36.981Z,5.0
2018-06-27T07:47:38.667Z,5.4
2018-06-27T07:48:40.340Z,4.6
2018-06-27T07:49:42.020Z,5.3
2018-06-27T07:50:43.688Z,4.3
2018-06-27T07:51:45.361Z,3.5
2018-06-27T07:52:47.030Z,5.6
2018-06-27T07:53:48.712Z,6.3
2018-06-27T07:54:50.403Z,5.2
2018-06-27T07:55:52.067Z,7.6
2018-06-27T07:56:53.743Z,5.4
2018-06-27T07:57:55.417Z,5.5
2018-06-27T07:58:57.100Z,5.5
2018-06-27T07:59:58.776Z,4.9
2018-06-27T08:01:00.453Z,3.3
2018-06-27T08:02:02.134Z,3.8
2018-06-27T08:03:03.809Z,3.5
2018-06-27T08:04:05.476Z,7.0
2018-06-27T08:05:07.157Z,4.9
2018-06-27T08:06:08.833Z,5.8
2018-06-27T08:07:10.513Z,4.5
2018-06-27T08:08:12.181Z,4.6
2018-06-27T08:09:13.855Z,4.2
2018-06-27T08:10:15.533Z,3.5
2018-06-27T08:11:17.207Z,3.6
2018-06-27T08:12:19.026Z,3.8
2018-06-27T08:13:20.675Z,4.1
2018-06-27T08:14:22.342Z,7.2
2018-06-27T08:15:24.024Z,3.0
2018-06-27T08:16:25.712Z,2.6
2018-06-27T08:17:27.397Z,4.0
2018-06-27T08:18:29.076Z,7.1
2018-06-27T08:19:30.755Z,3.5
2018-06-27T08:20:32.439Z,5.9
2018-06-27T08:21:34.627Z,3.1
2018-06-27T08:22:36.302Z,3.1
2018-06-27T08:23:37.982Z,3.8
2018-06-27T08:24:39.655Z,4.0
2018-06-27T08:25:41.346Z,4.8
2018-06-27T08:26:43.021Z,3.8
2018-06-27T08:27:44.693Z,3.7
2018-06-27T08:28:46.359Z,3.0
2018-06-27T08:29:48.036Z,5.1
2018-06-27T08:30:49.754Z,3.9
2018-06-27T08:31:51.421Z,5.1
2018-06-27T08:32:53.100Z,4.6
2018-06-27T08:33:54.778Z,3.1
2018-06-27T08:34:56.549Z,3.9
2018-06-27T08:35:58.230Z,5.5
2018-06-27T08:36:59.908Z,4.3
2018-06-27T08:38:01.573Z,4.9
2018-06-27T08:39:03.235Z,3.1
2018-06-27T08:40:04.914Z,3.9
2018-06-27T08:41:06.578Z,4.8
2018-06-27T08:42:08.253Z,3.7
2018-06-27T08:43:09.929Z,7.9
2018-06-27T08:44:11.596Z,4.7
2018-06-27T08:45:13.273Z,2.9
2018-06-27T08:46:14.952Z,3.5
2018-06-27T08:47:16.615Z,2.9
2018-06-27T08:48:18.324Z,4.1
2018-06-27T08:49:20.040Z,4.0
2018-06-27T08:50:21.726Z,4.6
2018-06-27T08:52:33.060Z,3.3
2018-06-27T08:54:44.347Z,4.0
2018-06-27T08:55:46.411Z,4.4
2018-06-27T08:56:48.213Z,4.0
2018-06-27T08:57:49.883Z,3.5
2018-06-27T08:58:51.589Z,4.2
2018-06-27T08:59:53.260Z,2.5
2018-06-27T09:00:54.947Z,3.2
2018-06-27T09:01:56.657Z,3.8
2018-06-27T09:02:58.330Z,4.2
2018-06-27T09:04:00.007Z,4.1
2018-06-27T09:05:01.681Z,2.8
2018-06-27T09:06:03.392Z,4.1
2018-06-27T09:07:05.062Z,3.2
2018-06-27T09:08:06.822Z,4.3
2018-06-27T09:09:08.500Z,5.4
2018-06-27T09:10:10.175Z,4.0
2018-06-27T09:11:12.720Z,3.1
2018-06-27T09:12:14.391Z,3.5
2018-06-27T09:13:16.981Z,4.7
2018-06-27T09:14:18.660Z,3.2
2018-06-27T09:15:20.344Z,4.1
2018-06-27T09:16:22.114Z,4.2
2018-06-27T09:17:59.436Z,3.5
2018-06-27T09:19:01.810Z,3.8
2018-06-27T09:20:03.620Z,3.0
2018-06-27T09:21:05.799Z,2.8
2018-06-27T09:22:07.620Z,6.6
2018-06-27T09:23:09.726Z,3.2
2018-06-27T09:24:11.757Z,10.5
2018-06-27T09:25:14.156Z,6.4
2018-06-27T09:26:19.319Z,6.3
2018-06-27T09:27:23.033Z,4.2
2018-06-27T09:28:25.599Z,2.8
2018-06-27T09:29:28.697Z,2.9
2018-06-27T09:30:30.821Z,5.2
2018-06-27T09:31:33.123Z,5.0
2018-06-27T09:32:35.478Z,3.8
2018-06-27T09:33:37.778Z,3.3
2018-06-27T09:34:40.264Z,5.8
2018-06-27T09:35:42.005Z,3.1
2018-06-27T09:36:43.793Z,2.9
2018-06-27T09:37:45.526Z,3.6
2018-06-27T09:38:49.301Z,3.3
2018-06-27T09:39:52.741Z,2.4
2018-06-27T09:40:56.311Z,2.2
2018-06-27T09:42:01.043Z,3.1
2018-06-27T09:43:05.786Z,3.4
2018-06-27T09:44:09.583Z,19.7
2018-06-27T09:45:11.573Z,5.4
2018-06-27T09:46:15.121Z,4.6
2018-06-27T09:47:19.513Z,4.1
2018-06-27T09:48:23.423Z,8.9
2018-06-27T09:49:27.121Z,4.7
2018-06-27T09:50:30.821Z,3.5
2018-06-27T09:51:32.414Z,2.7
2018-06-27T09:52:34.118Z,2.2
2018-06-27T09:53:35.843Z,4.2
2018-06-27T09:54:37.542Z,2.5
2018-06-27T09:55:39.260Z,2.6
2018-06-27T10:01:28.359Z,2.5
2018-06-27T10:02:30.031Z,2.5
2018-06-27T10:03:31.714Z,5.4
2018-06-27T10:04:33.388Z,2.5
2018-06-27T10:05:35.069Z,2.5
2018-06-27T10:06:36.871Z,2.8
2018-06-27T10:07:38.579Z,5.4
2018-06-27T10:08:40.260Z,5.4
2018-06-27T10:09:41.937Z,2.4
2018-06-27T10:10:43.625Z,3.7
2018-06-27T10:11:45.344Z,3.1
2018-06-27T10:12:47.017Z,8.8
2018-06-27T10:13:48.779Z,5.1
2018-06-27T10:14:50.453Z,2.8
2018-06-27T10:15:52.135Z,3.7
2018-06-27T10:16:53.879Z,2.1
2018-06-27T10:17:55.511Z,2.7
2018-06-27T10:18:57.262Z,2.4
2018-06-27T10:19:58.939Z,2.1
2018-06-27T10:21:00.642Z,2.1
2018-06-27T10:22:02.327Z,2.8
2018-06-27T10:23:04.021Z,2.8
2018-06-27T10:24:05.695Z,2.3
2018-06-27T10:25:07.428Z,2.6
2018-06-27T10:26:09.098Z,2.6
2018-06-27T10:27:10.810Z,5.0
2018-06-27T10:28:12.486Z,2.7
2018-06-27T10:29:14.190Z,2.7
2018-06-27T10:30:15.868Z,3.3
2018-06-27T10:31:17.543Z,5.2
2018-06-27T10:32:19.215Z,3.2
2018-06-27T10:33:20.891Z,2.7
2018-06-27T10:34:22.566Z,2.4
2018-06-27T10:35:24.237Z,3.1
2018-06-27T10:36:25.919Z,2.5
2018-06-27T10:37:27.595Z,5.0
2018-06-27T10:38:29.273Z,2.5
2018-06-27T10:39:30.964Z,2.0
2018-06-27T10:40:32.637Z,2.8
2018-06-27T10:41:34.339Z,2.9
2018-06-27T10:42:36.015Z,2.8
2018-06-27T10:43:37.693Z,2.5
2018-06-27T10:45:13.861Z,1.8
2018-06-27T10:46:15.550Z,5.0
2018-06-27T10:47:17.232Z,2.5
2018-06-27T10:48:18.914Z,2.4
2018-06-27T10:49:20.593Z,2.4
2018-06-27T10:50:22.283Z,3.6
2018-06-27T10:51:23.965Z,2.6
2018-06-27T10:52:25.647Z,1.8
2018-06-27T10:53:27.327Z,2.7
2018-06-27T10:54:29.026Z,1.8
2018-06-27T10:55:30.759Z,3.0
2018-06-27T10:56:32.443Z,3.0
2018-06-27T10:57:34.137Z,4.9
2018-06-27T10:58:35.806Z,3.1
2018-06-27T10:59:37.492Z,2.3
2018-06-27T11:00:39.174Z,2.5
2018-06-27T11:01:40.861Z,3.2
2018-06-27T11:02:42.585Z,3.2
2018-06-27T11:03:44.255Z,4.8
2018-06-27T11:04:45.938Z,2.6
2018-06-27T11:05:47.627Z,2.7
2018-06-27T11:06:49.305Z,2.3
2018-06-27T11:07:50.995Z,4.1
2018-06-27T11:08:52.681Z,2.6
2018-06-27T11:09:54.353Z,3.1
2018-06-27T11:10:56.050Z,4.4
2018-06-27T11:11:57.732Z,3.0
2018-06-27T11:12:59.417Z,2.7
2018-06-27T11:14:01.104Z,3.5
2018-06-27T11:15:02.819Z,2.3
2018-06-27T11:16:04.500Z,2.9
2018-06-27T11:17:06.197Z,3.4
2018-06-27T11:18:07.888Z,2.9
2018-06-27T11:19:09.567Z,3.6
2018-06-27T11:20:11.251Z,4.0
2018-06-27T11:21:12.938Z,2.5
2018-06-27T11:22:14.617Z,3.4
2018-06-27T11:23:16.332Z,2.5
2018-06-27T11:24:18.009Z,3.7
2018-06-27T11:25:19.684Z,3.8
2018-06-27T11:26:21.373Z,2.2
2018-06-27T11:27:23.051Z,4.4
2018-06-27T11:28:24.760Z,3.7
2018-06-27T11:29:26.523Z,2.4
2018-06-27T11:30:28.203Z,3.6
2018-06-27T11:31:29.914Z,2.4
2018-06-27T11:32:31.583Z,2.7
2018-06-27T11:33:33.390Z,9.5
2018-06-27T11:34:35.092Z,4.0
2018-06-27T11:35:36.802Z,3.5
2018-06-27T11:36:43.640Z,3.4
2018-06-27T11:37:45.316Z,3.4
2018-06-27T11:38:47.040Z,4.6
2018-06-27T11:39:48.707Z,4.7
2018-06-27T11:40:50.451Z,4.0
2018-06-27T11:41:52.160Z,6.0
2018-06-27T11:42:53.840Z,5.4
2018-06-27T11:43:55.525Z,3.0
2018-06-27T11:44:57.212Z,4.4
2018-06-27T11:45:58.872Z,6.5
2018-06-27T11:47:00.572Z,4.7
2018-06-27T11:48:03.716Z,4.3
2018-06-27T11:49:05.398Z,5.7
2018-06-27T11:50:07.086Z,4.4
2018-06-27T11:51:08.783Z,4.5
2018-06-27T11:52:10.472Z,5.3
2018-06-27T11:53:12.222Z,4.6
2018-06-27T11:54:13.908Z,3.4
2018-06-27T11:55:15.580Z,3.5
2018-06-27T11:56:17.261Z,3.5
2018-06-27T11:57:18.942Z,3.6
2018-06-27T11:58:20.635Z,4.3
2018-06-27T11:59:22.310Z,5.3
2018-06-27T12:00:23.980Z,4.4
2018-06-27T12:01:25.667Z,5.7
2018-06-27T12:02:27.338Z,5.9
2018-06-27T12:03:29.027Z,4.1
2018-06-27T12:04:30.716Z,5.6
2018-06-27T12:05:32.417Z,5.0
2018-06-27T12:06:34.117Z,5.4
2018-06-27T12:07:35.778Z,4.9
2018-06-27T12:08:37.458Z,5.4
2018-06-27T12:09:39.143Z,6.0
2018-06-27T12:10:40.832Z,5.8
2018-06-27T12:11:42.515Z,8.4
2018-06-27T12:12:44.201Z,5.3
2018-06-27T12:13:46.085Z,5.9
2018-06-27T12:14:47.762Z,5.9
2018-06-27T12:15:49.468Z,5.1
2018-06-27T12:16:51.165Z,5.2
2018-06-27T12:17:52.816Z,18.8
2018-06-27T12:18:54.500Z,5.2
2018-06-27T12:19:56.182Z,5.8
2018-06-27T12:20:57.869Z,4.9
2018-06-27T12:21:59.545Z,3.8
2018-06-27T12:23:01.213Z,4.1
2018-06-27T12:24:03.040Z,6.7
2018-06-27T12:25:04.722Z,5.7
2018-06-27T12:26:06.407Z,5.5
2018-06-27T12:27:08.091Z,6.1
2018-06-27T12:28:09.785Z,5.3
2018-06-27T12:29:11.471Z,6.8
2018-06-27T12:30:13.144Z,5.0
2018-06-27T12:31:14.835Z,7.6
2018-06-27T12:32:16.522Z,9.5
2018-06-27T12:33:18.201Z,8.8
2018-06-27T12:34:19.885Z,6.7
2018-06-27T12:35:21.565Z,4.8
2018-06-27T12:36:23.267Z,4.7
2018-06-27T12:37:24.935Z,7.2
2018-06-27T12:38:26.634Z,6.2
2018-06-27T12:39:28.322Z,5.4
2018-06-27T12:40:30.001Z,4.2
2018-06-27T12:41:31.688Z,4.7
2018-06-27T12:42:33.376Z,2.9
2018-06-27T12:43:35.072Z,4.1
2018-06-27T12:44:36.752Z,4.1
2018-06-27T12:45:38.438Z,4.1
2018-06-27T12:46:40.108Z,3.7
2018-06-27T12:47:41.787Z,4.8
2018-06-27T12:48:43.472Z,3.5
2018-06-27T12:49:45.167Z,5.2
2018-06-27T12:50:46.841Z,9.6
2018-06-27T12:51:48.516Z,3.4
2018-06-27T12:52:50.203Z,5.4
2018-06-27T12:53:51.922Z,2.8
2018-06-27T12:54:53.657Z,4.1
2018-06-27T12:55:55.338Z,2.7
2018-06-27T12:56:57.028Z,3.6
2018-06-27T12:57:58.710Z,3.6
2018-06-27T12:59:00.412Z,4.8
2018-06-27T13:00:02.106Z,4.0
2018-06-27T13:01:03.833Z,5.3
2018-06-27T13:02:05.544Z,4.9
2018-06-27T13:03:07.229Z,4.5
2018-06-27T13:04:08.912Z,3.2
2018-06-27T13:05:10.585Z,3.6
2018-06-27T13:06:12.279Z,4.1
2018-06-27T13:07:14.017Z,4.6
2018-06-27T13:08:15.655Z,4.3
2018-06-27T13:09:17.561Z,4.6
2018-06-27T13:10:18.989Z,5.2
2018-06-27T13:11:20.675Z,5.6
2018-06-27T13:12:22.351Z,4.0
2018-06-27T13:13:24.030Z,3.7
2018-06-27T13:14:25.720Z,5.7
2018-06-27T13:15:32.997Z,5.0
2018-06-27T13:16:54.263Z,4.2
2018-06-27T13:17:57.918Z,5.2
2018-06-27T13:19:02.954Z,6.8
2018-06-27T13:20:04.684Z,9.6
2018-06-27T13:21:06.446Z,5.8
2018-06-27T13:22:08.170Z,5.7
2018-06-27T13:23:10.001Z,6.6
2018-06-27T13:24:11.755Z,5.1
2018-06-27T13:25:13.497Z,5.7
2018-06-27T13:26:15.298Z,4.1
2018-06-27T13:27:17.081Z,8.8
2018-06-27T13:28:18.885Z,4.9
2018-06-27T13:29:20.620Z,4.5
2018-06-27T13:30:22.298Z,5.6
2018-06-27T13:31:23.982Z,6.4
2018-06-27T13:32:26.072Z,5.8
2018-06-27T13:33:27.796Z,5.0
2018-06-27T13:34:29.519Z,8.2
2018-06-27T13:35:31.210Z,6.2
2018-06-27T13:36:32.882Z,5.9
2018-06-27T13:37:34.562Z,7.6
2018-06-27T13:38:36.283Z,6.1
2018-06-27T13:39:37.967Z,4.8
2018-06-27T13:40:39.664Z,6.9
2018-06-27T13:41:41.353Z,7.0
2018-06-27T13:42:43.019Z,8.6
2018-06-27T13:43:44.710Z,6.5
2018-06-27T13:44:46.402Z,8.7
2018-06-27T13:45:48.120Z,7.5
2018-06-27T13:46:49.852Z,8.2
2018-06-27T13:47:51.563Z,7.0
2018-06-27T13:48:53.278Z,5.6
2018-06-27T13:49:54.960Z,6.4
2018-06-27T13:50:56.666Z,6.7
2018-06-27T13:51:58.392Z,8.5
2018-06-27T13:53:00.078Z,6.0
2018-06-27T13:54:01.751Z,6.6
2018-06-27T13:55:03.459Z,6.5
2018-06-27T14:01:07.888Z,5.4
2018-06-27T14:02:09.572Z,6.8
2018-06-27T14:04:01.566Z,5.8
2018-06-27T14:05:03.264Z,8.8
2018-06-27T14:06:04.931Z,6.8
2018-06-27T14:07:06.613Z,4.9
2018-06-27T14:08:08.289Z,6.8
2018-06-27T14:09:09.969Z,6.6
2018-06-27T14:10:11.642Z,5.0
2018-06-27T14:11:13.318Z,5.5
2018-06-27T14:12:14.994Z,5.8
2018-06-27T14:13:16.765Z,10.6
2018-06-27T14:14:18.430Z,4.9
2018-06-27T14:15:20.096Z,5.1
2018-06-27T14:16:22.088Z,5.1
2018-06-27T14:17:23.775Z,5.3
2018-06-27T14:18:25.444Z,6.6
2018-06-27T14:19:27.126Z,3.8
2018-06-27T14:20:28.790Z,7.0
2018-06-27T14:21:30.458Z,8.6
2018-06-27T14:22:32.166Z,5.7
2018-06-27T14:23:33.838Z,6.0
2018-06-27T14:24:35.504Z,5.7
2018-06-27T14:25:37.174Z,3.9
2018-06-27T14:26:38.879Z,4.9
2018-06-27T14:27:40.558Z,6.4
2018-06-27T14:28:42.232Z,6.4
2018-06-27T14:29:43.904Z,4.5
2018-06-27T14:30:45.647Z,6.2
2018-06-27T14:31:47.337Z,4.7
2018-06-27T14:32:49.061Z,4.6
2018-06-27T14:33:50.671Z,4.1
2018-06-27T14:34:52.371Z,5.3
2018-06-27T14:35:54.049Z,5.5
2018-06-27T14:36:55.724Z,4.8
2018-06-27T14:37:57.410Z,5.1
2018-06-27T14:38:59.089Z,4.4
2018-06-27T14:40:00.770Z,4.8
2018-06-27T14:41:02.437Z,6.0
2018-06-27T14:42:04.113Z,4.1
2018-06-27T14:43:05.786Z,4.4
2018-06-27T14:44:07.457Z,6.7
2018-06-27T14:45:09.142Z,4.6
2018-06-27T14:46:10.810Z,4.7
2018-06-27T14:47:12.549Z,3.3
2018-06-27T14:48:14.223Z,5.3
2018-06-27T14:49:15.982Z,4.7
2018-06-27T14:50:17.700Z,3.6
2018-06-27T14:51:19.390Z,3.0
2018-06-27T14:52:21.065Z,6.2
2018-06-27T14:53:22.746Z,3.6
2018-06-27T14:54:24.461Z,4.9
2018-06-27T14:55:26.137Z,5.4
2018-06-27T14:56:27.810Z,4.8
2018-06-27T14:57:29.483Z,3.5
2018-06-27T14:58:31.171Z,4.8
2018-06-27T14:59:32.889Z,6.1
2018-06-27T15:00:34.473Z,5.1
2018-06-27T15:01:36.159Z,4.7
2018-06-27T15:02:37.817Z,5.0
2018-06-27T15:03:39.495Z,3.5
2018-06-27T15:04:41.168Z,5.5
2018-06-27T15:05:43.804Z,4.7
2018-06-27T15:06:45.471Z,3.6
2018-06-27T15:07:47.141Z,4.2
2018-06-27T15:08:48.830Z,5.0
2018-06-27T15:09:50.507Z,3.4
2018-06-27T15:10:52.203Z,3.8
2018-06-27T15:11:53.869Z,3.3
2018-06-27T15:12:55.534Z,2.9
2018-06-27T15:13:57.212Z,6.0
2018-06-27T15:14:58.895Z,7.6
2018-06-27T15:16:00.591Z,4.1
2018-06-27T15:17:02.259Z,4.7
2018-06-27T15:18:03.925Z,3.6
2018-06-27T15:19:05.597Z,4.7
2018-06-27T15:20:07.268Z,5.2
2018-06-27T15:21:08.941Z,3.0
2018-06-27T15:22:10.610Z,2.8
2018-06-27T15:23:12.344Z,3.0
2018-06-27T15:24:14.007Z,3.3
2018-06-27T15:25:15.690Z,3.8
2018-06-27T15:26:17.372Z,2.6
2018-06-27T15:27:19.041Z,4.6
2018-06-27T15:28:20.709Z,5.1
2018-06-27T15:29:22.399Z,5.2
2018-06-27T15:30:24.130Z,2.7
2018-06-27T15:31:25.802Z,2.5
2018-06-27T15:32:27.466Z,4.8
2018-06-27T15:33:29.140Z,4.7
2018-06-27T15:34:30.807Z,3.4
2018-06-27T15:35:32.532Z,4.4
2018-06-27T15:36:34.140Z,6.8
2018-06-27T15:37:35.822Z,2.0
2018-06-27T15:38:37.487Z,3.8
2018-06-27T15:39:39.166Z,5.3
2018-06-27T15:40:40.838Z,3.8
2018-06-27T15:41:42.688Z,2.9
2018-06-27T15:42:44.208Z,4.7
2018-06-27T15:43:45.878Z,4.7
2018-06-27T15:44:47.557Z,3.4
2018-06-27T15:45:49.219Z,4.9
2018-06-27T15:46:50.908Z,2.1
2018-06-27T15:47:52.594Z,3.6
2018-06-27T15:48:54.270Z,2.1
2018-06-27T15:49:55.947Z,4.4
2018-06-27T15:50:57.620Z,2.7
2018-06-27T15:51:59.282Z,4.6
2018-06-27T15:53:00.946Z,4.1
2018-06-27T15:54:02.620Z,2.8
2018-06-27T15:55:04.287Z,3.2
2018-06-27T15:56:05.970Z,2.9
2018-06-27T15:57:07.645Z,2.9
2018-06-27T15:58:09.318Z,4.1
2018-06-27T15:59:10.986Z,3.3
2018-06-27T16:00:12.700Z,4.2
2018-06-27T16:01:14.376Z,3.9
2018-06-27T16:02:16.041Z,4.0
2018-06-27T16:03:17.711Z,3.4
2018-06-27T16:04:19.388Z,4.1
2018-06-27T16:05:21.073Z,3.8
2018-06-27T16:06:22.748Z,3.2
2018-06-27T16:07:24.426Z,3.3
2018-06-27T16:08:26.089Z,4.0
2018-06-27T16:09:27.768Z,3.1
2018-06-27T16:10:29.428Z,3.4
2018-06-27T16:11:31.183Z,3.2
2018-06-27T16:12:32.794Z,3.0
2018-06-27T16:13:34.463Z,6.2
2018-06-27T16:14:36.130Z,3.0
2018-06-27T16:15:37.801Z,4.1
2018-06-27T16:16:39.479Z,4.1
2018-06-27T16:17:41.137Z,5.0
2018-06-27T16:18:42.830Z,2.4
2018-06-27T16:19:44.504Z,4.9
2018-06-27T16:20:46.170Z,4.3
2018-06-27T16:21:47.842Z,2.7
2018-06-27T16:22:49.512Z,4.1